Time;durP1;ratioP1;P1;durP2;ratioP2;P2;SDS_P1;SDS_P2;PMS_P1;PMS_P2;Temp;Humidity;BMP_temperature;BMP_pressure;BME280_temperature;BME280_humidity;BME280_pressure;Samples;Min_cycle;Max_cycle;Signal;HPM_P1;HPM_P2
2021/04/28 00:00:09;;;;;;;3.80;2.65;;;9.20;49.30;;;;;;5052416;28;20123;-87
2021/04/28 00:02:35;;;;;;;3.88;2.65;;;9.30;49.20;;;;;;5053775;28;20052;-88
2021/04/28 00:05:07;;;;;;;7.45;3.10;;;9.30;49.10;;;;;;5052597;28;20492;-88
2021/04/28 00:07:33;;;;;;;4.68;3.17;;;9.30;49.10;;;;;;5052243;28;20595;-88
2021/04/28 00:09:59;;;;;;;6.70;2.60;;;9.30;49.30;;;;;;5052342;28;20067;-87
2021/04/28 00:12:25;;;;;;;5.07;3.47;;;9.20;49.50;;;;;;5052633;28;20171;-88
2021/04/28 00:14:50;;;;;;;5.45;3.35;;;9.10;49.90;;;;;;5052417;28;20025;-88
2021/04/28 00:17:16;;;;;;;5.70;3.33;;;9.10;50.00;;;;;;5071198;28;20028;-87
2021/04/28 00:19:42;;;;;;;4.55;3.08;;;9.10;50.00;;;;;;5071004;28;20535;-87
2021/04/28 00:22:07;;;;;;;5.68;3.22;;;9.00;49.90;;;;;;5035573;28;20540;-88
2021/04/28 00:24:33;;;;;;;3.80;2.60;;;9.00;50.00;;;;;;5035753;28;20056;-88
2021/04/28 00:26:58;;;;;;;4.15;2.85;;;9.10;50.00;;;;;;5053406;28;20491;-88
2021/04/28 00:29:24;;;;;;;5.10;3.47;;;9.10;50.20;;;;;;5035407;28;20060;-87
2021/04/28 00:31:50;;;;;;;3.47;2.70;;;9.10;50.30;;;;;;5053442;28;20021;-88
2021/04/28 00:34:16;;;;;;;6.90;3.40;;;9.00;50.30;;;;;;5053222;28;20029;-87
2021/04/28 00:36:41;;;;;;;5.13;3.20;;;9.00;50.30;;;;;;5035294;28;20039;-88
2021/04/28 00:39:07;;;;;;;6.88;3.58;;;9.00;50.40;;;;;;5053493;28;20099;-88
2021/04/28 00:41:33;;;;;;;5.28;3.10;;;9.00;50.60;;;;;;5053479;28;20029;-87
2021/04/28 00:43:59;;;;;;;5.35;3.20;;;9.00;50.60;;;;;;5035535;28;20047;-86
2021/04/28 00:46:24;;;;;;;7.95;3.58;;;8.90;50.60;;;;;;5035637;28;20541;-87
2021/04/28 00:48:50;;;;;;;4.90;3.35;;;8.90;50.80;;;;;;5035165;28;20029;-87
2021/04/28 00:51:15;;;;;;;5.68;3.85;;;8.80;51.10;;;;;;5035432;28;20128;-87
2021/04/28 00:53:41;;;;;;;4.43;3.20;;;8.80;51.20;;;;;;5035546;28;20038;-87
2021/04/28 00:56:08;;;;;;;5.20;3.72;;;8.80;51.20;;;;;;5035357;28;20025;-88
2021/04/28 00:58:33;;;;;;;4.40;2.95;;;8.80;51.10;;;;;;5053258;28;20025;-86
2021/04/28 01:00:59;;;;;;;5.35;3.13;;;8.70;51.10;;;;;;5035611;28;20029;-87
2021/04/28 01:03:27;;;;;;;5.35;3.17;;;8.70;51.20;;;;;;5035532;28;20025;-87
2021/04/28 01:05:55;;;;;;;4.95;3.80;;;8.60;51.50;;;;;;5053135;28;20025;-87
2021/04/28 01:08:21;;;;;;;5.95;3.40;;;8.60;51.60;;;;;;5035207;28;20052;-87
2021/04/28 01:10:49;;;;;;;4.95;3.78;;;8.60;51.70;;;;;;5036015;28;20492;-87
2021/04/28 01:13:14;;;;;;;5.75;3.75;;;8.60;51.70;;;;;;5039411;28;20388;-87
2021/04/28 01:15:40;;;;;;;5.63;3.50;;;8.50;51.80;;;;;;5033923;28;20029;-87
2021/04/28 01:18:06;;;;;;;4.00;2.47;;;8.40;51.90;;;;;;5020411;28;20507;-88
2021/04/28 01:20:35;;;;;;;3.55;2.80;;;8.40;51.90;;;;;;5032518;28;20037;-87
2021/04/28 01:23:00;;;;;;;3.92;3.08;;;8.30;52.00;;;;;;5057625;28;20023;-86
2021/04/28 01:25:27;;;;;;;4.38;2.97;;;8.30;52.20;;;;;;5056047;28;20108;-87
2021/04/28 01:27:58;;;;;;;4.97;2.92;;;8.30;52.30;;;;;;5056747;28;20103;-87
2021/04/28 01:30:29;;;;;;;5.18;3.60;;;8.30;52.30;;;;;;5055654;28;20515;-87
2021/04/28 01:32:56;;;;;;;6.20;3.42;;;8.20;52.70;;;;;;5055417;28;20025;-87
2021/04/28 01:35:25;;;;;;;5.03;3.50;;;8.20;52.70;;;;;;5055679;28;20029;-87
2021/04/28 01:37:51;;;;;;;5.95;4.22;;;8.20;52.80;;;;;;5055505;28;20017;-87
2021/04/28 01:40:19;;;;;;;8.05;4.00;;;8.10;53.10;;;;;;5055400;28;20028;-87
2021/04/28 01:42:48;;;;;;;4.95;3.28;;;8.10;53.10;;;;;;5055277;28;20017;-87
2021/04/28 01:45:15;;;;;;;5.40;4.00;;;8.00;53.00;;;;;;5055404;28;20028;-87
2021/04/28 01:47:41;;;;;;;5.70;3.28;;;8.00;53.10;;;;;;5055314;28;20044;-87
2021/04/28 01:50:09;;;;;;;7.32;3.78;;;8.10;53.00;;;;;;5055189;28;20480;-87
2021/04/28 01:52:36;;;;;;;6.72;3.60;;;8.10;53.30;;;;;;5056473;28;20104;-86
2021/04/28 01:55:01;;;;;;;4.40;3.05;;;8.10;53.30;;;;;;5054990;28;20028;-87
2021/04/28 01:57:28;;;;;;;5.22;3.13;;;8.10;53.10;;;;;;5055153;28;20021;-86
2021/04/28 01:59:54;;;;;;;5.75;3.17;;;8.10;53.10;;;;;;5054909;28;20100;-87
2021/04/28 02:02:20;;;;;;;6.35;3.58;;;8.00;53.20;;;;;;5054987;28;20424;-86
2021/04/28 02:04:46;;;;;;;7.15;3.55;;;8.00;53.50;;;;;;5054895;28;20036;-87
2021/04/28 02:07:13;;;;;;;6.03;3.63;;;7.90;53.60;;;;;;5054959;28;20075;-88
2021/04/28 02:09:38;;;;;;;6.72;3.90;;;7.90;53.90;;;;;;5055962;28;20040;-88
2021/04/28 02:12:04;;;;;;;5.60;3.63;;;7.80;54.10;;;;;;5054741;28;20025;-87
2021/04/28 02:14:32;;;;;;;6.80;3.70;;;7.80;54.10;;;;;;5054408;28;20025;-87
2021/04/28 02:16:58;;;;;;;4.82;2.85;;;7.70;54.40;;;;;;5055783;28;20389;-86
2021/04/28 02:19:24;;;;;;;4.97;3.15;;;7.70;54.40;;;;;;5054549;28;20036;-86
2021/04/28 02:21:51;;;;;;;6.53;3.95;;;7.60;54.60;;;;;;5054357;28;20049;-87
2021/04/28 02:24:18;;;;;;;5.18;3.42;;;7.60;54.70;;;;;;5055776;28;20028;-88
2021/04/28 02:26:44;;;;;;;7.50;3.75;;;7.60;54.80;;;;;;5054386;28;20047;-88
2021/04/28 02:29:10;;;;;;;5.60;3.55;;;7.60;55.00;;;;;;5054538;28;20102;-87
2021/04/28 02:31:37;;;;;;;5.57;3.70;;;7.60;55.20;;;;;;5054421;28;20017;-86
2021/04/28 02:34:04;;;;;;;4.78;3.47;;;7.60;55.40;;;;;;5054324;28;20035;-86
2021/04/28 02:36:39;;;;;;;4.82;3.25;;;7.50;55.20;;;;;;5055816;28;20103;-86
2021/04/28 02:39:17;;;;;;;6.13;3.80;;;7.60;55.20;;;;;;5054021;28;20449;-84
2021/04/28 02:41:44;;;;;;;6.22;4.38;;;7.50;55.20;;;;;;5053935;28;20025;-87
2021/04/28 02:44:14;;;;;;;6.93;4.07;;;7.50;55.50;;;;;;5054299;28;20078;-86
2021/04/28 02:46:40;;;;;;;4.53;3.47;;;7.40;55.50;;;;;;5055499;28;20044;-87
2021/04/28 02:49:07;;;;;;;6.05;3.67;;;7.40;55.60;;;;;;5054009;28;20025;-86
2021/04/28 02:51:38;;;;;;;5.30;3.75;;;7.40;55.70;;;;;;5054130;28;20021;-86
2021/04/28 02:54:06;;;;;;;6.05;4.07;;;7.30;55.90;;;;;;5055169;28;20029;-86
2021/04/28 02:56:32;;;;;;;5.45;3.70;;;7.30;56.10;;;;;;5053803;28;20476;-84
2021/04/28 02:58:59;;;;;;;6.32;4.10;;;7.20;56.00;;;;;;5053759;28;20029;-87
2021/04/28 03:01:26;;;;;;;6.85;3.90;;;7.20;56.00;;;;;;5053842;28;20067;-88
2021/04/28 03:03:53;;;;;;;6.65;4.30;;;7.20;56.20;;;;;;5054997;28;20432;-86
2021/04/28 03:06:18;;;;;;;6.20;4.35;;;7.20;56.40;;;;;;5053756;28;20020;-88
2021/04/28 03:08:46;;;;;;;6.70;3.58;;;7.20;56.40;;;;;;5054845;28;20074;-88
2021/04/28 03:11:13;;;;;;;5.82;4.22;;;7.20;56.50;;;;;;5053591;28;20427;-86
2021/04/28 03:13:40;;;;;;;5.40;3.97;;;7.20;56.40;;;;;;5053694;28;20037;-85
2021/04/28 03:16:06;;;;;;;8.20;5.57;;;7.20;56.70;;;;;;5063934;28;20426;-87
2021/04/28 03:18:32;;;;;;;6.47;4.68;;;7.10;57.80;;;;;;5073831;28;20024;-85
2021/04/28 03:20:59;;;;;;;6.68;4.45;;;7.10;58.80;;;;;;5063171;28;20174;-87
2021/04/28 03:23:25;;;;;;;7.63;4.45;;;7.10;58.80;;;;;;5037282;28;20365;-86
2021/04/28 03:25:51;;;;;;;6.82;4.43;;;7.10;58.30;;;;;;5054324;28;20025;-83
2021/04/28 03:28:17;;;;;;;5.85;3.70;;;7.10;58.10;;;;;;5054334;28;20538;-87
2021/04/28 03:30:42;;;;;;;6.97;4.22;;;7.00;57.90;;;;;;5036700;28;20035;-85
2021/04/28 03:33:08;;;;;;;6.32;4.28;;;7.00;57.90;;;;;;5036179;28;20463;-85
2021/04/28 03:35:33;;;;;;;5.82;3.83;;;6.90;57.80;;;;;;5054057;28;20549;-86
2021/04/28 03:37:59;;;;;;;6.20;4.22;;;6.90;57.80;;;;;;5036296;28;20124;-83
2021/04/28 03:40:25;;;;;;;8.07;4.03;;;6.90;57.80;;;;;;5054120;28;20021;-85
2021/04/28 03:42:50;;;;;;;6.97;4.43;;;6.90;57.70;;;;;;5036377;28;20127;-87
2021/04/28 03:45:16;;;;;;;6.22;4.07;;;6.90;57.70;;;;;;5053798;28;20036;-87
2021/04/28 03:47:42;;;;;;;6.25;4.35;;;6.90;58.50;;;;;;5036185;28;20029;-86
2021/04/28 03:50:10;;;;;;;7.32;4.63;;;6.80;58.10;;;;;;5035953;28;20025;-83
2021/04/28 03:52:36;;;;;;;7.97;4.20;;;6.80;58.30;;;;;;5035944;28;20035;-85
2021/04/28 03:55:03;;;;;;;7.10;4.50;;;6.80;58.40;;;;;;5035960;28;20032;-85
2021/04/28 03:57:29;;;;;;;8.77;5.07;;;6.80;58.30;;;;;;5035783;28;20070;-85
2021/04/28 03:59:54;;;;;;;6.68;4.93;;;6.70;58.60;;;;;;5053368;28;20024;-86
2021/04/28 04:02:20;;;;;;;5.63;4.10;;;6.70;58.80;;;;;;5053281;28;20021;-86
2021/04/28 04:04:45;;;;;;;5.70;3.67;;;6.70;58.60;;;;;;5053186;28;20075;-85
2021/04/28 04:07:11;;;;;;;6.63;5.28;;;6.70;58.60;;;;;;5035312;28;20029;-85
2021/04/28 04:09:36;;;;;;;7.55;4.05;;;6.60;58.70;;;;;;5035799;28;20028;-85
2021/04/28 04:12:02;;;;;;;7.10;4.05;;;6.60;58.60;;;;;;5053486;28;20032;-86
2021/04/28 04:14:28;;;;;;;6.60;4.40;;;6.60;58.70;;;;;;5035223;28;20037;-86
2021/04/28 04:16:53;;;;;;;5.65;4.40;;;6.60;58.80;;;;;;5053342;28;20485;-86
2021/04/28 04:19:19;;;;;;;10.75;5.30;;;6.60;58.90;;;;;;5053264;28;20033;-84
2021/04/28 04:21:44;;;;;;;7.97;5.07;;;6.60;59.10;;;;;;5067877;28;20044;-85
2021/04/28 04:24:10;;;;;;;7.90;4.55;;;6.50;59.40;;;;;;5072098;28;20019;-84
2021/04/28 04:26:36;;;;;;;6.82;4.43;;;6.50;59.50;;;;;;5071906;28;20043;-84
2021/04/28 04:29:02;;;;;;;7.75;4.72;;;6.50;59.70;;;;;;5073204;28;20025;-86
2021/04/28 04:31:28;;;;;;;9.93;5.10;;;6.50;59.70;;;;;;5071804;28;20073;-83
2021/04/28 04:33:53;;;;;;;6.43;4.18;;;6.50;59.80;;;;;;5071913;28;20032;-85
2021/04/28 04:36:19;;;;;;;9.20;4.68;;;6.50;60.00;;;;;;5071401;28;20135;-85
2021/04/28 04:38:44;;;;;;;7.93;4.82;;;6.50;60.20;;;;;;5071138;28;20031;-88
2021/04/28 04:41:10;;;;;;;10.52;5.07;;;6.60;60.30;;;;;;5069430;28;20017;-86
2021/04/28 04:43:35;;;;;;;9.85;5.32;;;6.60;61.40;;;;;;5071826;28;20107;-84
2021/04/28 04:46:01;;;;;;;7.43;4.90;;;6.70;62.00;;;;;;5071857;28;20074;-84
2021/04/28 04:48:26;;;;;;;9.68;5.60;;;6.70;62.10;;;;;;5071983;28;20035;-86
2021/04/28 04:50:52;;;;;;;7.38;5.13;;;6.70;62.60;;;;;;5072818;28;20052;-85
2021/04/28 04:53:18;;;;;;;6.45;4.80;;;6.70;62.20;;;;;;5073063;28;20472;-83
2021/04/28 04:55:43;;;;;;;6.43;5.13;;;6.70;62.10;;;;;;5072853;28;20530;-84
2021/04/28 04:58:09;;;;;;;10.88;5.25;;;6.70;62.50;;;;;;5071802;28;20112;-84
2021/04/28 05:00:34;;;;;;;8.35;4.63;;;6.70;62.50;;;;;;5071531;28;20027;-86
2021/04/28 05:03:00;;;;;;;6.03;4.10;;;6.70;62.70;;;;;;5071712;28;20020;-85
2021/04/28 05:05:25;;;;;;;8.90;5.43;;;6.70;62.50;;;;;;5071358;28;20540;-84
2021/04/28 05:07:52;;;;;;;5.63;4.47;;;6.80;62.90;;;;;;5071721;28;20028;-86
2021/04/28 05:10:18;;;;;;;7.78;4.88;;;6.80;63.00;;;;;;5071856;28;20111;-86
2021/04/28 05:12:46;;;;;;;7.35;4.97;;;6.80;63.30;;;;;;5072356;28;20123;-87
2021/04/28 05:15:13;;;;;;;11.43;6.05;;;6.80;63.30;;;;;;5075800;28;20111;-85
2021/04/28 05:17:38;;;;;;;8.45;5.18;;;6.80;63.20;;;;;;5053719;28;20028;-84
2021/04/28 05:20:05;;;;;;;9.63;5.60;;;6.80;63.60;;;;;;5051374;28;20048;-84
2021/04/28 05:22:30;;;;;;;8.55;4.65;;;6.90;63.90;;;;;;5052595;28;20374;-87
2021/04/28 05:24:56;;;;;;;7.75;5.15;;;6.90;63.90;;;;;;5051495;28;20036;-85
2021/04/28 05:27:25;;;;;;;11.70;5.50;;;7.00;63.90;;;;;;5052778;28;20104;-86
2021/04/28 05:29:54;;;;;;;9.95;5.53;;;7.00;64.30;;;;;;5052707;28;20022;-86
2021/04/28 05:32:19;;;;;;;10.13;5.93;;;7.00;64.30;;;;;;5052495;28;20033;-86
2021/04/28 05:34:45;;;;;;;6.93;5.45;;;7.10;64.90;;;;;;5052562;28;20048;-86
2021/04/28 05:37:18;;;;;;;8.50;4.90;;;7.10;65.00;;;;;;5051386;28;20032;-85
2021/04/28 05:39:44;;;;;;;7.18;5.40;;;7.20;64.80;;;;;;5051623;28;20408;-86
2021/04/28 05:42:09;;;;;;;7.63;5.40;;;7.20;65.00;;;;;;5051278;28;20381;-85
2021/04/28 05:44:35;;;;;;;8.73;5.03;;;7.30;64.40;;;;;;5051354;28;20035;-86
2021/04/28 05:47:01;;;;;;;11.07;5.07;;;7.30;64.00;;;;;;5051295;28;20029;-85
2021/04/28 05:49:27;;;;;;;9.40;5.30;;;7.40;63.90;;;;;;5051397;28;20028;-87
2021/04/28 05:51:53;;;;;;;10.60;5.80;;;7.40;63.90;;;;;;5052625;28;20029;-88
2021/04/28 05:54:18;;;;;;;8.38;4.40;;;7.40;64.10;;;;;;5051198;28;20087;-83
2021/04/28 05:56:44;;;;;;;9.63;5.32;;;7.40;64.00;;;;;;5053758;28;20079;-86
2021/04/28 05:59:09;;;;;;;8.73;4.85;;;7.50;64.20;;;;;;5065096;28;20066;-84
2021/04/28 06:01:35;;;;;;;10.48;5.55;;;7.60;64.10;;;;;;5063922;28;20472;-85
2021/04/28 06:04:01;;;;;;;9.73;5.93;;;7.70;64.50;;;;;;5063726;28;20365;-85
2021/04/28 06:06:26;;;;;;;9.70;5.68;;;7.80;64.30;;;;;;5065330;28;20021;-84
2021/04/28 06:08:53;;;;;;;8.85;5.75;;;7.80;63.50;;;;;;5068281;28;20056;-87
2021/04/28 06:11:18;;;;;;;7.40;4.68;;;7.90;62.60;;;;;;5065697;28;20016;-86
2021/04/28 06:13:46;;;;;;;9.88;5.70;;;7.90;62.30;;;;;;5065435;28;20031;-86
2021/04/28 06:16:13;;;;;;;9.82;5.80;;;8.00;62.90;;;;;;5065422;28;20074;-86
2021/04/28 06:18:38;;;;;;;9.25;5.13;;;8.00;63.20;;;;;;5066039;28;20075;-87
2021/04/28 06:21:08;;;;;;;7.18;4.70;;;8.10;62.30;;;;;;5070984;28;20044;-86
2021/04/28 06:23:34;;;;;;;10.77;5.40;;;8.20;62.40;;;;;;5057410;28;20044;-85
2021/04/28 06:25:59;;;;;;;9.43;5.28;;;8.30;61.80;;;;;;5075181;28;20063;-85
2021/04/28 06:28:25;;;;;;;9.95;5.68;;;8.40;61.80;;;;;;5085469;28;20468;-86
2021/04/28 06:30:51;;;;;;;8.50;6.00;;;8.40;61.60;;;;;;5074948;28;20100;-84
2021/04/28 06:33:16;;;;;;;11.93;5.20;;;8.50;62.20;;;;;;5082240;28;20024;-86
2021/04/28 06:35:42;;;;;;;10.93;6.18;;;8.50;62.40;;;;;;5082357;28;20028;-86
2021/04/28 06:38:07;;;;;;;7.45;5.05;;;8.50;62.10;;;;;;5084618;28;20032;-85
2021/04/28 06:40:34;;;;;;;9.55;5.93;;;8.60;62.00;;;;;;5074856;28;20021;-84
2021/04/28 06:43:00;;;;;;;11.43;5.80;;;8.70;62.10;;;;;;5042032;28;20129;-88
2021/04/28 06:45:25;;;;;;;10.13;5.18;;;8.70;62.20;;;;;;5054756;28;20104;-85
2021/04/28 06:47:51;;;;;;;7.65;5.32;;;8.80;62.00;;;;;;5056994;28;20024;-82
2021/04/28 06:50:17;;;;;;;9.73;5.55;;;8.80;61.80;;;;;;5080270;28;20024;-85
2021/04/28 06:52:44;;;;;;;7.70;5.22;;;8.90;61.40;;;;;;5074812;28;20031;-87
2021/04/28 06:55:11;;;;;;;9.02;5.85;;;9.00;61.20;;;;;;5079513;28;20028;-86
2021/04/28 06:57:36;;;;;;;8.32;5.40;;;9.00;61.30;;;;;;5055800;28;20044;-85
2021/04/28 07:00:05;;;;;;;9.23;6.00;;;9.10;60.60;;;;;;5052857;28;20051;-85
2021/04/28 07:02:30;;;;;;;14.65;6.60;;;9.20;59.60;;;;;;5038348;28;20056;-85
2021/04/28 07:04:56;;;;;;;12.55;6.00;;;9.20;60.00;;;;;;5025592;28;20060;-85
2021/04/28 07:07:21;;;;;;;10.20;6.00;;;9.20;60.20;;;;;;5033417;28;20051;-86
2021/04/28 07:09:47;;;;;;;12.02;6.70;;;9.30;60.30;;;;;;5047625;28;20070;-85
2021/04/28 07:12:12;;;;;;;9.10;5.72;;;9.40;61.20;;;;;;5082584;28;20054;-85
2021/04/28 07:14:38;;;;;;;9.00;5.85;;;9.40;59.90;;;;;;5046399;28;20044;-85
2021/04/28 07:17:03;;;;;;;11.13;5.72;;;9.50;60.60;;;;;;5072843;28;20031;-88
2021/04/28 07:19:29;;;;;;;10.90;6.85;;;9.50;60.20;;;;;;5074621;28;20024;-85
2021/04/28 07:21:55;;;;;;;7.95;4.90;;;9.60;60.30;;;;;;5070008;28;20044;-85
2021/04/28 07:24:20;;;;;;;10.23;6.50;;;9.70;60.20;;;;;;5073774;28;20024;-84
2021/04/28 07:26:46;;;;;;;9.10;5.95;;;9.60;61.30;;;;;;5080881;28;20040;-87
2021/04/28 07:29:11;;;;;;;9.13;6.65;;;9.60;59.90;;;;;;5068474;28;20547;-83
2021/04/28 07:31:37;;;;;;;11.40;6.20;;;9.50;60.60;;;;;;5080720;28;20021;-84
2021/04/28 07:34:03;;;;;;;9.13;5.60;;;9.50;60.70;;;;;;5055688;28;20031;-84
2021/04/28 07:36:29;;;;;;;11.18;6.50;;;9.60;60.90;;;;;;5078103;28;20126;-84
2021/04/28 07:38:55;;;;;;;9.07;6.10;;;9.60;61.50;;;;;;5073480;28;20017;-86
2021/04/28 07:41:20;;;;;;;9.82;6.00;;;9.70;61.60;;;;;;5079183;28;20020;-83
2021/04/28 07:43:46;;;;;;;9.10;5.88;;;9.80;60.60;;;;;;5081160;28;20024;-86
2021/04/28 07:46:11;;;;;;;11.63;5.97;;;9.90;60.70;;;;;;5053292;28;20022;-84
2021/04/28 07:48:37;;;;;;;11.40;5.72;;;10.00;60.00;;;;;;5049851;28;20058;-85
2021/04/28 07:51:03;;;;;;;11.02;5.80;;;10.00;60.00;;;;;;5073261;28;20392;-87
2021/04/28 07:53:29;;;;;;;11.20;6.20;;;10.10;60.00;;;;;;5083958;28;20032;-86
2021/04/28 07:55:54;;;;;;;11.52;6.45;;;10.20;59.70;;;;;;5055400;28;20115;-85
2021/04/28 07:58:20;;;;;;;8.50;5.78;;;10.30;60.00;;;;;;5078996;28;20564;-87
2021/04/28 08:00:46;;;;;;;8.05;4.90;;;10.40;59.90;;;;;;5055417;28;20016;-85
2021/04/28 08:03:12;;;;;;;7.80;5.82;;;10.60;59.60;;;;;;5072863;28;20009;-85
2021/04/28 08:05:38;;;;;;;8.63;4.82;;;10.70;58.90;;;;;;5073066;28;20373;-85
2021/04/28 08:08:04;;;;;;;12.07;6.88;;;10.90;58.70;;;;;;5088967;28;20025;-85
2021/04/28 08:10:31;;;;;;;14.25;5.95;;;11.10;58.30;;;;;;5054693;28;20020;-83
2021/04/28 08:12:57;;;;;;;11.32;6.35;;;11.20;58.30;;;;;;5084222;28;20048;-85
2021/04/28 08:15:22;;;;;;;11.05;6.65;;;11.30;57.60;;;;;;5049084;28;20424;-85
2021/04/28 08:17:48;;;;;;;8.07;5.72;;;11.40;57.40;;;;;;5052767;28;20548;-84
2021/04/28 08:20:14;;;;;;;7.60;5.72;;;11.40;57.60;;;;;;5053842;28;20401;-86
2021/04/28 08:22:40;;;;;;;7.95;6.32;;;11.50;57.80;;;;;;5060925;28;20044;-85
2021/04/28 08:25:11;;;;;;;7.30;5.45;;;11.50;57.30;;;;;;5061103;28;20036;-85
2021/04/28 08:27:37;;;;;;;8.82;5.68;;;11.50;57.40;;;;;;5065252;28;20017;-85
2021/04/28 08:30:08;;;;;;;11.57;6.75;;;11.50;58.20;;;;;;5063214;28;20103;-85
2021/04/28 08:32:34;;;;;;;8.70;5.90;;;11.50;57.70;;;;;;5062267;28;20021;-85
2021/04/28 08:35:00;;;;;;;8.90;6.18;;;11.60;57.90;;;;;;5052279;28;20319;-85
2021/04/28 08:37:25;;;;;;;10.48;6.78;;;11.60;57.90;;;;;;5051936;28;20021;-85
2021/04/28 08:39:51;;;;;;;9.93;6.30;;;11.80;57.30;;;;;;5051771;28;20025;-84
2021/04/28 08:42:17;;;;;;;8.38;6.30;;;11.90;57.00;;;;;;5051737;28;20053;-85
2021/04/28 08:44:43;;;;;;;7.85;6.15;;;12.00;57.00;;;;;;5051723;28;20036;-86
2021/04/28 08:47:09;;;;;;;9.00;6.75;;;12.20;57.80;;;;;;5052809;28;20151;-86
2021/04/28 08:49:35;;;;;;;8.65;5.22;;;12.40;58.30;;;;;;5052021;28;20500;-86
2021/04/28 08:52:01;;;;;;;7.53;6.28;;;12.60;56.70;;;;;;5051766;28;20078;-87
2021/04/28 08:54:28;;;;;;;9.07;5.70;;;12.80;56.60;;;;;;5051505;28;20039;-86
2021/04/28 08:56:54;;;;;;;8.05;5.32;;;13.00;56.70;;;;;;5052729;28;20100;-85
2021/04/28 08:59:21;;;;;;;7.45;5.55;;;13.10;56.00;;;;;;5054178;28;20083;-85
2021/04/28 09:01:48;;;;;;;7.97;5.95;;;13.10;55.60;;;;;;5052057;28;20017;-85
2021/04/28 09:04:16;;;;;;;15.77;6.95;;;13.20;55.30;;;;;;5052422;28;20025;-85
2021/04/28 09:06:42;;;;;;;10.65;6.80;;;13.30;54.60;;;;;;5052699;28;20036;-85
2021/04/28 09:09:15;;;;;;;7.97;6.97;;;13.40;53.90;;;;;;5058798;28;20119;-85
2021/04/28 09:11:45;;;;;;;9.68;6.97;;;13.50;54.30;;;;;;5071568;28;20020;-83
2021/04/28 09:14:13;;;;;;;;;;;13.60;54.30;;;;;;5073140;28;20035;-84
2021/04/28 09:16:42;;;;;;;10.07;6.78;;;13.70;54.00;;;;;;5058880;28;20279;-85
2021/04/28 09:19:19;;;;;;;12.25;7.50;;;13.80;54.10;;;;;;5051216;28;20033;-85
2021/04/28 09:22:01;;;;;;;12.50;7.60;;;14.00;53.80;;;;;;5051130;28;20045;-87
2021/04/28 09:24:29;;;;;;;8.95;7.25;;;14.20;53.50;;;;;;5051346;28;20024;-85
2021/04/28 09:26:57;;;;;;;10.95;6.18;;;14.40;54.10;;;;;;5051420;28;20021;-85
2021/04/28 09:29:26;;;;;;;9.15;7.25;;;14.60;52.60;;;;;;5051363;28;20018;-85
2021/04/28 09:31:57;;;;;;;10.70;7.53;;;15.00;52.70;;;;;;5052081;28;20025;-84
2021/04/28 09:34:31;;;;;;;11.23;6.90;;;15.50;49.10;;;;;;5056245;28;20036;-83
2021/04/28 09:37:09;;;;;;;11.90;7.57;;;15.90;49.60;;;;;;5054905;28;20427;-86
2021/04/28 09:39:40;;;;;;;10.05;7.35;;;16.20;48.10;;;;;;5055152;28;20029;-84
2021/04/28 09:42:06;;;;;;;14.90;7.72;;;16.40;47.60;;;;;;5056186;28;20100;-83
2021/04/28 09:44:34;;;;;;;12.50;8.02;;;16.40;47.80;;;;;;5054917;28;20070;-85
2021/04/28 09:47:05;;;;;;;9.65;7.43;;;16.40;47.80;;;;;;5057215;28;20465;-84
2021/04/28 09:49:54;;;;;;;9.25;7.05;;;16.50;47.50;;;;;;5074872;28;20021;-87
2021/04/28 09:52:23;;;;;;;12.00;7.50;;;16.60;47.30;;;;;;5065900;28;20033;-84
2021/04/28 09:54:51;;;;;;;11.25;7.25;;;17.30;47.30;;;;;;5065774;28;20021;-85
2021/04/28 09:57:19;;;;;;;8.55;7.07;;;18.00;45.60;;;;;;5063209;28;20021;-86
2021/04/28 09:59:51;;;;;;;10.93;7.25;;;18.70;44.50;;;;;;5057802;28;20488;-86
2021/04/28 10:02:28;;;;;;;12.60;7.57;;;20.30;42.50;;;;;;5054651;28;20055;-83
2021/04/28 10:05:20;;;;;;;8.90;6.97;;;21.90;40.00;;;;;;5056129;28;20037;-82
2021/04/28 10:07:46;;;;;;;10.07;7.28;;;23.20;37.90;;;;;;5054435;28;20036;-83
2021/04/28 10:10:13;;;;;;;10.60;7.63;;;24.00;36.50;;;;;;5055706;28;20025;-85
2021/04/28 10:12:39;;;;;;;12.07;8.10;;;24.50;34.30;;;;;;5055668;28;20036;-82
2021/04/28 10:15:06;;;;;;;12.75;7.53;;;25.30;33.70;;;;;;5054121;28;20029;-81
2021/04/28 10:17:35;;;;;;;8.85;6.60;;;25.20;32.80;;;;;;5055671;28;20477;-83
2021/04/28 10:20:02;;;;;;;7.82;6.38;;;25.00;33.50;;;;;;5051629;28;20049;-85
2021/04/28 10:22:28;;;;;;;11.02;8.68;;;24.70;34.00;;;;;;5017605;28;20022;-84
2021/04/28 10:24:56;;;;;;;18.98;8.80;;;24.10;34.50;;;;;;5017732;28;20040;-84
2021/04/28 10:27:22;;;;;;;7.68;6.10;;;23.80;34.60;;;;;;5035468;28;20032;-88
2021/04/28 10:29:50;;;;;;;11.82;7.30;;;23.90;35.50;;;;;;5017588;28;20030;-84
2021/04/28 10:32:21;;;;;;;13.18;7.38;;;24.30;35.00;;;;;;5017640;28;20037;-82
2021/04/28 10:35:00;;;;;;;11.80;8.02;;;24.80;33.70;;;;;;5035183;28;20029;-84
2021/04/28 10:37:31;;;;;;;17.35;8.50;;;25.10;33.10;;;;;;5035204;28;20079;-85
2021/04/28 10:39:57;;;;;;;15.00;8.88;;;25.50;32.00;;;;;;5017409;28;20053;-84
2021/04/28 10:42:29;;;;;;;14.15;8.45;;;25.80;32.30;;;;;;5017379;28;20103;-86
2021/04/28 10:44:55;;;;;;;7.03;6.32;;;25.70;32.50;;;;;;5016040;28;20044;-84
2021/04/28 10:47:39;;;;;;;9.27;7.10;;;26.30;32.40;;;;;;5044436;28;20025;-84
2021/04/28 10:50:28;;;;;;;9.23;6.72;;;26.80;32.20;;;;;;5035477;28;20429;-81
2021/04/28 10:53:01;;;;;;;7.93;6.43;;;28.00;31.00;;;;;;5054732;28;20025;-84
2021/04/28 10:55:43;;;;;;;9.40;7.85;;;28.90;30.70;;;;;;5054579;28;20059;-84
2021/04/28 10:58:27;;;;;;;11.85;8.38;;;30.10;29.10;;;;;;5052022;28;20031;-84
2021/04/28 11:01:05;;;;;;;9.48;7.78;;;30.40;28.10;;;;;;5032227;28;20506;-85
2021/04/28 11:03:34;;;;;;;11.05;8.43;;;29.80;28.70;;;;;;5037938;28;20381;-83
2021/04/28 11:06:25;;;;;;;8.38;7.50;;;29.50;28.40;;;;;;5031870;28;20018;-83
2021/04/28 11:09:00;;;;;;;7.03;6.32;;;29.00;28.70;;;;;;5032509;28;20033;-85
2021/04/28 11:11:32;;;;;;;9.80;8.45;;;28.50;29.40;;;;;;5044811;28;20025;-83
2021/04/28 11:16:42;;;;;;;11.02;8.93;;;29.20;29.60;;;;;;5043546;28;20035;-81
2021/04/28 11:19:30;;;;;;;9.60;8.68;;;29.40;28.60;;;;;;5045823;28;20022;-83
2021/04/28 11:22:28;;;;;;;7.90;7.03;;;29.40;28.40;;;;;;5062191;28;20139;-84
2021/04/28 11:24:59;;;;;;;11.35;8.77;;;29.40;28.80;;;;;;5064432;28;20039;-83
2021/04/28 11:27:50;;;;;;;10.27;9.18;;;29.30;29.40;;;;;;5062201;28;20079;-84
2021/04/28 11:30:31;;;;;;;8.30;6.57;;;29.80;28.60;;;;;;5061022;28;20021;-85
2021/04/28 11:33:19;;;;;;;11.88;8.82;;;30.50;28.50;;;;;;5072684;28;20033;-84
2021/04/28 11:35:54;;;;;;;9.07;7.18;;;31.40;28.30;;;;;;5073863;28;20067;-87
2021/04/28 11:38:26;;;;;;;8.63;7.72;;;31.60;27.20;;;;;;5072425;28;20074;-86
2021/04/28 11:40:51;;;;;;;13.75;10.13;;;32.20;26.80;;;;;;5065820;28;20428;-85
2021/04/28 11:43:21;;;;;;;9.00;8.20;;;32.70;26.50;;;;;;5062944;28;20016;-84
2021/04/28 11:45:47;;;;;;;8.77;7.88;;;33.00;26.50;;;;;;5061075;28;20068;-87
2021/04/28 11:48:17;;;;;;;8.77;7.93;;;32.90;26.30;;;;;;5068134;28;20024;-85
2021/04/28 11:50:47;;;;;;;7.90;7.05;;;32.80;26.40;;;;;;5072441;28;20031;-84
2021/04/28 11:53:13;;;;;;;10.52;8.27;;;32.90;26.20;;;;;;5072552;28;20078;-84
2021/04/28 11:55:40;;;;;;;8.82;8.00;;;33.40;26.00;;;;;;5061861;28;20436;-85
2021/04/28 11:58:28;;;;;;;8.75;7.00;;;32.80;26.00;;;;;;5062443;28;20082;-85
2021/04/28 12:01:08;;;;;;;7.70;6.90;;;32.50;26.70;;;;;;5061753;28;20029;-83
2021/04/28 12:03:53;;;;;;;8.95;7.97;;;32.60;26.70;;;;;;5052027;28;20032;-83
2021/04/28 12:06:33;;;;;;;8.30;7.00;;;32.80;26.40;;;;;;5051810;28;20499;-84
2021/04/28 12:09:12;;;;;;;9.65;8.75;;;32.20;26.60;;;;;;5043457;28;20029;-84
2021/04/28 12:11:40;;;;;;;9.10;8.20;;;31.90;26.80;;;;;;5060901;28;20073;-84
2021/04/28 12:14:06;;;;;;;11.02;9.85;;;31.10;26.70;;;;;;5065236;28;20050;-87
2021/04/28 12:16:32;;;;;;;8.75;7.95;;;30.70;27.20;;;;;;5050672;28;20372;-83
2021/04/28 12:19:13;;;;;;;6.78;6.18;;;30.40;26.70;;;;;;5052747;28;20036;-84
2021/04/28 12:21:51;;;;;;;9.45;8.50;;;31.10;27.30;;;;;;5034985;28;20484;-82
2021/04/28 12:24:27;;;;;;;;;;;31.40;27.20;;;;;;5017797;28;20026;-86
2021/04/28 12:27:13;;;;;;;8.77;7.88;;;31.80;27.20;;;;;;5054619;28;19957;-89
2021/04/28 12:29:48;;;;;;;9.65;8.68;;;32.00;26.40;;;;;;5056138;28;20030;-88
2021/04/28 12:32:14;;;;;;;8.88;7.88;;;31.40;26.20;;;;;;5016200;28;20071;-87
2021/04/28 12:34:42;;;;;;;7.57;6.88;;;31.10;26.50;;;;;;5025728;28;20039;-86
2021/04/28 12:37:16;;;;;;;8.75;7.85;;;31.00;26.70;;;;;;5052156;28;20028;-86
2021/04/28 12:39:49;;;;;;;7.90;7.20;;;31.10;26.90;;;;;;5046121;28;20028;-87
2021/04/28 12:42:19;;;;;;;7.55;6.22;;;31.10;26.90;;;;;;5027588;28;20049;-86
2021/04/28 12:44:46;;;;;;;7.45;5.35;;;30.70;24.10;;;;;;5009744;28;20116;-87
2021/04/28 12:47:12;;;;;;;10.48;6.82;;;29.90;24.00;;;;;;5020323;28;20021;-86
2021/04/28 12:49:37;;;;;;;5.80;5.30;;;29.50;24.20;;;;;;5030937;28;20023;-87
2021/04/28 12:52:14;;;;;;;8.25;7.47;;;29.00;25.40;;;;;;5050244;28;20043;-86
2021/04/28 12:54:40;;;;;;;8.13;7.25;;;28.20;24.80;;;;;;5070213;28;20045;-85
2021/04/28 12:57:22;;;;;;;7.28;6.40;;;27.10;24.70;;;;;;5045894;28;20090;-85